Time;durP1;ratioP1;P1;durP2;ratioP2;P2;SDS_P1;SDS_P2;PMS_P1;PMS_P2;Temp;Humidity;BMP_temperature;BMP_pressure;BME280_temperature;BME280_humidity;BME280_pressure;Samples;Min_cycle;Max_cycle;Signal;HPM_P1;HPM_P2
2022/04/01 00:01:02;;;;;;;10.77;9.32;;;;;;;1.11;92.86;100196.94;5029635;28;20381;-77
2022/04/01 00:03:28;;;;;;;9.38;8.25;;;;;;;1.11;93.13;100204.72;5036042;28;20040;-77
2022/04/01 00:05:53;;;;;;;9.98;8.98;;;;;;;1.09;93.67;100203.94;5029714;28;20072;-77
2022/04/01 00:08:19;;;;;;;11.32;7.78;;;;;;;1.09;93.49;100205.69;5039060;28;20086;-77
2022/04/01 00:10:44;;;;;;;8.80;7.80;;;;;;;1.07;93.03;100213.53;5044074;28;20076;-77
2022/04/01 00:13:11;;;;;;;8.82;7.68;;;;;;;1.06;93.14;100209.25;5032312;28;20025;-77
2022/04/01 00:15:37;;;;;;;7.65;6.80;;;;;;;1.05;92.76;100220.53;5040130;28;20017;-77
2022/04/01 00:18:03;;;;;;;9.80;7.40;;;;;;;1.02;93.70;100212.91;5028188;28;20116;-77
2022/04/01 00:20:28;;;;;;;8.35;7.32;;;;;;;1.00;93.47;100222.50;5028345;28;20766;-77
2022/04/01 00:22:54;;;;;;;8.05;7.00;;;;;;;1.00;93.77;100224.25;5030165;28;20013;-77
2022/04/01 00:25:20;;;;;;;8.25;7.10;;;;;;;0.95;93.16;100219.25;5028348;28;20040;-77
2022/04/01 00:27:45;;;;;;;8.15;6.57;;;;;;;0.92;93.31;100222.84;5016923;28;20038;-76
2022/04/01 00:30:11;;;;;;;7.15;6.45;;;;;;;0.91;93.10;100222.91;5024515;28;20032;-77
2022/04/01 00:32:40;;;;;;;7.15;6.20;;;;;;;0.84;93.63;100224.09;5029467;28;20029;-76
2022/04/01 00:35:06;;;;;;;7.50;6.68;;;;;;;0.81;93.35;100224.22;5038086;28;20053;-76
2022/04/01 00:37:31;;;;;;;7.10;6.10;;;;;;;0.79;93.78;100231.19;5037541;28;20029;-77
2022/04/01 00:39:57;;;;;;;7.75;6.43;;;;;;;0.79;93.71;100233.78;5034289;28;20448;-76
2022/04/01 00:42:23;;;;;;;7.13;6.25;;;;;;;0.74;93.33;100225.38;5029781;28;20053;-74
2022/04/01 00:44:48;;;;;;;8.43;6.57;;;;;;;0.74;93.25;100238.31;5028948;28;20500;-74
2022/04/01 00:47:15;;;;;;;8.00;6.28;;;;;;;0.73;93.51;100239.22;5030199;28;20083;-76
2022/04/01 00:49:42;;;;;;;6.90;5.95;;;;;;;0.71;93.43;100235.88;5028158;28;20044;-76
2022/04/01 00:52:10;;;;;;;6.95;6.18;;;;;;;0.70;93.90;100244.53;5045124;28;20339;-74
2022/04/01 00:54:39;;;;;;;7.00;6.30;;;;;;;0.66;93.73;100245.56;5029938;28;20060;-74
2022/04/01 00:57:10;;;;;;;6.47;5.80;;;;;;;0.65;93.81;100242.16;5029294;28;20014;-74
2022/04/01 00:59:35;;;;;;;7.88;6.47;;;;;;;0.65;93.71;100246.47;5003452;28;20059;-73
2022/04/01 01:02:03;;;;;;;8.40;6.25;;;;;;;0.63;94.01;100254.31;5022625;28;20421;-73
2022/04/01 01:04:29;;;;;;;8.95;6.68;;;;;;;0.61;94.21;100251.78;5029540;28;20477;-73
2022/04/01 01:06:56;;;;;;;8.00;6.47;;;;;;;0.60;94.78;100250.13;5032407;28;20024;-75
2022/04/01 01:09:23;;;;;;;7.55;6.68;;;;;;;0.60;93.75;100255.28;5036975;28;20036;-75
2022/04/01 01:11:51;;;;;;;7.28;6.35;;;;;;;0.60;94.38;100250.13;5027503;28;20029;-75
2022/04/01 01:14:31;;;;;;;7.03;6.05;;;;;;;0.59;94.33;100250.19;5028914;28;20025;-75
2022/04/01 01:16:58;;;;;;;6.35;5.68;;;;;;;0.58;94.80;100251.94;5007439;28;20033;-75
2022/04/01 01:19:24;;;;;;;5.95;5.35;;;;;;;0.55;94.31;100249.47;5032640;28;20132;-75
2022/04/01 01:21:51;;;;;;;6.00;5.40;;;;;;;0.54;94.65;100252.97;5035327;28;20549;-73
2022/04/01 01:24:17;;;;;;;7.22;6.00;;;;;;;0.54;94.70;100255.56;5023703;28;20033;-73
2022/04/01 01:26:50;;;;;;;7.28;6.20;;;;;;;0.55;94.20;100256.41;5027541;28;20029;-73
2022/04/01 01:29:22;;;;;;;6.80;5.45;;;;;;;0.52;94.91;100256.53;5028627;28;20108;-73
2022/04/01 01:31:48;;;;;;;6.43;5.55;;;;;;;0.52;94.39;100262.53;5028035;28;20457;-73
2022/04/01 01:34:14;;;;;;;7.93;5.50;;;;;;;0.49;94.51;100259.25;5036899;28;20111;-73
2022/04/01 01:36:40;;;;;;;7.47;5.82;;;;;;;0.48;94.76;100245.47;5031328;28;20032;-73
2022/04/01 01:39:05;;;;;;;6.15;5.53;;;;;;;0.47;94.60;100261.91;5027623;28;20105;-73
2022/04/01 01:41:31;;;;;;;7.20;5.82;;;;;;;0.46;95.23;100257.63;5027446;28;20472;-73
2022/04/01 01:43:56;;;;;;;7.50;6.07;;;;;;;0.45;95.08;100255.94;5018476;28;20021;-73
2022/04/01 01:46:22;;;;;;;7.55;6.05;;;;;;;0.44;94.50;100253.44;5023991;28;20457;-73
2022/04/01 01:48:47;;;;;;;6.35;5.63;;;;;;;0.43;94.56;100262.09;5028537;28;20482;-73
2022/04/01 01:56:45;;;;;;;8.45;5.90;;;;;;;0.39;95.09;100261.34;5028838;28;20099;-73
2022/04/01 01:59:11;;;;;;;7.30;6.30;;;;;;;0.38;95.09;100270.03;5028108;28;20028;-73
2022/04/01 02:01:40;;;;;;;10.10;7.30;;;;;;;0.40;95.06;100272.53;5026342;28;20060;-73
2022/04/01 02:04:06;;;;;;;10.65;6.03;;;;;;;0.38;95.16;100277.78;5030073;28;20017;-73
2022/04/01 02:06:31;;;;;;;7.20;6.50;;;;;;;0.38;94.99;100274.34;5030286;28;20099;-73
2022/04/01 02:08:58;;;;;;;7.22;6.28;;;;;;;0.38;95.13;100270.03;5033239;28;20098;-73
2022/04/01 02:11:24;;;;;;;7.32;6.57;;;;;;;0.36;95.24;100276.16;5029011;28;20511;-73
2022/04/01 02:13:50;;;;;;;7.70;6.75;;;;;;;0.36;94.89;100279.59;5028410;28;20057;-73
2022/04/01 02:16:16;;;;;;;8.23;6.30;;;;;;;0.36;94.92;100279.59;5039812;28;20014;-73
2022/04/01 02:18:42;;;;;;;7.55;6.53;;;;;;;0.35;95.78;100280.50;5047246;28;20032;-75
2022/04/01 02:21:10;;;;;;;7.13;6.43;;;;;;;0.35;95.61;100282.25;5030686;28;20017;-75
2022/04/01 02:23:40;;;;;;;7.03;6.32;;;;;;;0.36;95.60;100287.34;5032474;28;20074;-73
2022/04/01 02:26:07;;;;;;;8.70;6.70;;;;;;;0.36;94.95;100289.94;5028512;28;20029;-74
2022/04/01 02:28:33;;;;;;;7.75;6.80;;;;;;;0.36;95.76;100292.53;5039172;28;20028;-74
2022/04/01 02:30:58;;;;;;;6.70;6.10;;;;;;;0.37;95.79;100295.97;5032230;28;20044;-72
2022/04/01 02:33:24;;;;;;;7.50;6.63;;;;;;;0.35;95.25;100290.84;5029848;28;20046;-74
2022/04/01 02:35:50;;;;;;;7.50;6.53;;;;;;;0.37;95.18;100301.13;5028031;28;20025;-74
2022/04/01 02:38:16;;;;;;;8.40;6.85;;;;;;;0.36;95.78;100302.03;5031196;28;20025;-72
2022/04/01 02:40:41;;;;;;;7.47;6.75;;;;;;;0.34;95.61;100299.50;5032146;28;20025;-75
2022/04/01 02:43:07;;;;;;;7.40;6.43;;;;;;;0.36;95.74;100302.03;5030644;28;20389;-74
2022/04/01 02:45:32;;;;;;;7.10;6.43;;;;;;;0.33;95.16;100308.19;5031947;28;20052;-72
2022/04/01 02:47:58;;;;;;;7.75;6.95;;;;;;;0.35;95.49;100308.97;5031022;28;20065;-72
2022/04/01 02:50:23;;;;;;;7.82;7.13;;;;;;;0.35;95.26;100295.19;5036462;28;20508;-75
2022/04/01 02:52:48;;;;;;;7.70;6.95;;;;;;;0.36;95.38;100318.41;5038016;28;20032;-74
2022/04/01 02:55:14;;;;;;;7.93;6.85;;;;;;;0.36;95.46;100318.41;5030691;28;20485;-74
2022/04/01 02:57:39;;;;;;;7.63;6.90;;;;;;;0.34;95.59;100320.22;5031643;28;20029;-74
2022/04/01 03:00:09;;;;;;;8.73;6.72;;;;;;;0.31;95.17;100323.78;5024930;28;20025;-72
2022/04/01 03:02:38;;;;;;;7.95;7.15;;;;;;;0.31;95.38;100335.88;5035800;28;20091;-72
2022/04/01 03:05:05;;;;;;;8.00;7.20;;;;;;;0.29;95.61;100327.31;5038783;28;20385;-72
2022/04/01 03:07:31;;;;;;;7.80;7.10;;;;;;;0.29;95.60;100343.69;5030481;28;20029;-75
2022/04/01 03:09:56;;;;;;;8.10;7.30;;;;;;;0.27;95.32;100331.72;5029692;28;20516;-75
2022/04/01 03:12:22;;;;;;;8.48;7.68;;;;;;;0.28;95.53;100334.25;5030024;28;20540;-72
2022/04/01 03:14:48;;;;;;;8.98;8.07;;;;;;;0.27;95.62;100331.72;5035807;28;20393;-72
2022/04/01 03:17:14;;;;;;;9.30;8.40;;;;;;;0.28;95.56;100336.00;5030809;28;20068;-72
2022/04/01 03:19:40;;;;;;;9.45;8.40;;;;;;;0.25;94.97;100331.78;5030384;28;20469;-72
2022/04/01 03:22:06;;;;;;;9.60;8.70;;;;;;;0.25;95.88;100338.69;5031427;28;20022;-72
2022/04/01 03:24:32;;;;;;;9.57;8.60;;;;;;;0.25;95.25;100343.88;5033106;28;20040;-75
2022/04/01 03:26:57;;;;;;;9.70;8.77;;;;;;;0.23;95.46;100349.09;5068869;28;20021;-72
2022/04/01 03:29:22;;;;;;;10.82;9.77;;;;;;;0.23;95.73;100354.28;5030072;28;20037;-72
2022/04/01 03:31:51;;;;;;;12.18;10.10;;;;;;;0.22;95.43;100354.34;5030904;28;20021;-72
2022/04/01 03:34:17;;;;;;;10.93;9.82;;;;;;;0.21;95.80;100357.84;5027174;28;20417;-72
2022/04/01 03:36:44;;;;;;;12.75;10.07;;;;;;;0.20;95.31;100354.41;5050249;28;20116;-72
2022/04/01 03:39:10;;;;;;;13.38;10.18;;;;;;;0.20;95.02;100357.00;5028642;28;20051;-72
2022/04/01 03:41:35;;;;;;;10.73;9.63;;;;;;;0.18;95.46;100361.38;5030035;28;20491;-72
2022/04/01 03:44:01;;;;;;;11.30;10.10;;;;;;;0.17;95.49;100359.69;5033656;28;20036;-72
2022/04/01 03:46:40;;;;;;;10.50;9.40;;;;;;;0.17;95.30;100358.84;5031113;28;20370;-72
2022/04/01 03:49:07;;;;;;;11.02;9.82;;;;;;;0.16;96.32;100378.72;5033726;28;20029;-74
2022/04/01 03:51:34;;;;;;;11.02;10.02;;;;;;;0.15;95.81;100376.19;5037885;28;20091;-74
2022/04/01 03:54:03;;;;;;;10.13;9.23;;;;;;;0.16;96.27;100372.69;5030715;28;20032;-74
2022/04/01 03:56:35;;;;;;;9.48;8.57;;;;;;;0.15;96.48;100374.44;5029370;28;20040;-72
2022/04/01 03:59:06;;;;;;;10.50;9.43;;;;;;;0.14;95.96;100374.50;5028066;28;20029;-74
2022/04/01 04:01:34;;;;;;;12.27;8.52;;;;;;;0.13;96.03;100373.66;5029535;28;20120;-74
2022/04/01 04:04:04;;;;;;;9.63;8.63;;;;;;;0.12;96.18;100387.50;5049099;28;20420;-72
2022/04/01 04:06:32;;;;;;;9.48;8.57;;;;;;;0.12;96.27;100386.66;5050282;28;20108;-72
2022/04/01 04:09:00;;;;;;;11.85;9.48;;;;;;;0.10;96.78;100389.28;5047714;28;20546;-72
2022/04/01 04:11:28;;;;;;;10.48;8.82;;;;;;;0.10;96.00;100401.38;5030483;28;20026;-74
2022/04/01 04:13:55;;;;;;;12.95;9.43;;;;;;;0.11;96.71;100405.66;5029215;28;20079;-74
2022/04/01 04:16:31;;;;;;;8.98;8.15;;;;;;;0.09;96.46;100402.28;5040915;28;20091;-72
2022/04/01 04:19:16;;;;;;;14.15;9.23;;;;;;;0.09;96.49;100415.22;5020285;28;20026;-74
2022/04/01 04:21:49;;;;;;;10.23;9.23;;;;;;;0.09;96.51;100418.66;5028921;28;20079;-74
2022/04/01 04:24:26;;;;;;;9.55;8.65;;;;;;;0.09;96.26;100415.22;5041154;28;20396;-74
2022/04/01 04:26:51;;;;;;;10.15;9.10;;;;;;;0.09;96.46;100417.81;5040173;28;20021;-74
2022/04/01 04:29:18;;;;;;;9.90;8.93;;;;;;;0.06;96.44;100423.94;5040808;28;20103;-74
2022/04/01 04:31:59;;;;;;;9.68;8.60;;;;;;;0.08;96.59;100427.31;5033812;28;20367;-74
2022/04/01 04:34:35;;;;;;;10.07;9.02;;;;;;;0.06;96.77;100428.25;5015293;28;20056;-74
2022/04/01 04:37:02;;;;;;;10.20;9.20;;;;;;;0.05;96.62;100431.75;5030040;28;20062;-74
2022/04/01 04:39:31;;;;;;;10.18;9.10;;;;;;;0.05;96.31;100436.94;5030779;28;20021;-74
2022/04/01 04:41:59;;;;;;;10.57;8.98;;;;;;;0.05;96.42;100444.69;5029451;28;20428;-74
2022/04/01 04:44:28;;;;;;;10.88;9.73;;;;;;;0.07;96.75;100450.63;5023713;28;20096;-74
2022/04/01 04:46:55;;;;;;;11.43;8.90;;;;;;;0.05;96.61;100447.28;5030090;28;20017;-72
2022/04/01 04:49:21;;;;;;;11.60;9.68;;;;;;;0.04;96.66;100454.19;5029595;28;20025;-74
2022/04/01 04:51:50;;;;;;;11.48;9.10;;;;;;;0.05;96.83;100466.22;5030992;28;20079;-74
2022/04/01 04:54:18;;;;;;;10.30;9.30;;;;;;;0.04;96.58;100458.50;5038917;28;20024;-74
2022/04/01 04:56:44;;;;;;;10.90;9.00;;;;;;;0.04;96.23;100471.44;5033018;28;20032;-74
2022/04/01 04:59:09;;;;;;;11.68;9.50;;;;;;;0.04;95.76;100474.03;5033470;28;20079;-74
2022/04/01 05:02:10;;;;;;;10.65;9.55;;;;;;;0.07;96.59;100481.69;5024238;28;20043;-74
2022/04/01 05:05:02;;;;;;;11.00;9.82;;;;;;;0.05;96.49;100483.47;5026392;28;20029;-74
2022/04/01 05:07:46;;;;;;;;;;;;;;;0.12;95.76;100490.09;5034683;28;20025;-74
2022/04/01 05:10:12;;;;;;;;;;;;;;;0.12;95.30;100495.28;5035760;28;19909;-74
2022/04/01 05:13:09;;;;;;;10.95;9.70;;;;;;;0.05;95.55;100494.66;5028977;28;20321;-74
2022/04/01 05:15:37;;;;;;;10.85;9.75;;;;;;;0.03;95.55;100498.22;5028445;28;20033;-74
2022/04/01 05:18:16;;;;;;;10.43;9.43;;;;;;;0.05;95.68;100499.00;5028070;28;20025;-74
2022/04/01 05:20:59;;;;;;;10.25;9.25;;;;;;;0.04;95.27;100507.66;5011394;28;20037;-74
2022/04/01 05:23:49;;;;;;;10.30;8.85;;;;;;;0.03;95.42;100516.31;5028790;28;20029;-74
2022/04/01 05:26:15;;;;;;;9.55;8.65;;;;;;;0.03;95.30;100513.72;5028032;28;20026;-74
2022/04/01 05:28:52;;;;;;;10.07;8.85;;;;;;;0.03;95.23;100524.06;5033598;28;20027;-74
2022/04/01 05:31:23;;;;;;;9.90;8.65;;;;;;;0.02;93.99;100530.97;5027433;28;20044;-74
2022/04/01 05:34:01;;;;;;;10.25;9.25;;;;;;;0.04;94.87;100528.34;5027461;28;20050;-74
2022/04/01 05:36:28;;;;;;;11.02;8.90;;;;;;;0.03;94.71;100527.50;5059396;28;20045;-74
2022/04/01 05:38:55;;;;;;;11.13;9.50;;;;;;;0.03;95.03;100529.25;5035375;28;20115;-74
2022/04/01 05:41:21;;;;;;;10.27;9.20;;;;;;;0.03;94.25;100535.25;5037256;28;20029;-74
2022/04/01 05:43:47;;;;;;;10.48;9.32;;;;;;;0.03;94.59;100542.16;5028921;28;20024;-74
2022/04/01 05:46:17;;;;;;;11.35;9.23;;;;;;;0.04;94.25;100543.84;5031248;28;20106;-74
2022/04/01 05:48:43;;;;;;;9.88;8.93;;;;;;;0.04;94.45;100554.19;5028283;28;20026;-72
2022/04/01 05:51:15;;;;;;;10.80;9.52;;;;;;;0.06;94.85;100555.00;5034622;28;20021;-72
2022/04/01 05:53:46;;;;;;;11.07;9.93;;;;;;;0.07;94.68;100554.09;5036364;28;20493;-72
2022/04/01 05:56:12;;;;;;;10.85;9.75;;;;;;;0.05;93.99;100561.06;5044189;28;20560;-72
2022/04/01 05:58:40;;;;;;;10.57;9.48;;;;;;;0.05;94.34;100571.41;5028186;28;20477;-72
2022/04/01 06:01:29;;;;;;;10.55;9.02;;;;;;;0.07;94.67;100570.44;5028539;28;20060;-72
2022/04/01 06:04:17;;;;;;;10.50;9.40;;;;;;;0.09;94.59;100584.19;5038664;28;20127;-72
2022/04/01 06:06:45;;;;;;;11.05;9.45;;;;;;;0.05;93.73;100587.78;5028097;28;20137;-73
2022/04/01 06:09:38;;;;;;;10.48;9.45;;;;;;;0.08;93.41;100592.00;5026249;28;20060;-73
2022/04/01 06:12:19;;;;;;;11.07;9.73;;;;;;;0.05;94.14;100592.94;5054166;28;20064;-72
2022/04/01 06:14:50;;;;;;;11.65;9.30;;;;;;;0.05;93.74;100607.63;5035908;28;20025;-73
2022/04/01 06:17:26;;;;;;;11.38;9.10;;;;;;;0.05;93.89;100617.97;5030728;28;20057;-72
2022/04/01 06:19:56;;;;;;;10.15;9.10;;;;;;;0.02;94.05;100612.91;5011969;28;20041;-72
2022/04/01 06:22:28;;;;;;;9.20;8.18;;;;;;;0.02;93.61;100623.25;5031141;28;20143;-72
2022/04/01 06:25:13;;;;;;;9.77;8.80;;;;;;;0.03;93.68;100622.34;5026429;28;20053;-72
2022/04/01 06:27:42;;;;;;;9.80;8.75;;;;;;;0.03;93.84;100627.50;5028922;28;20039;-72
2022/04/01 06:30:09;;;;;;;11.02;9.02;;;;;;;0.04;93.68;100636.97;5028279;28;20500;-72
2022/04/01 06:33:15;;;;;;;9.95;8.45;;;;;;;0.07;93.57;100631.69;5026831;28;20039;-73
2022/04/01 06:35:56;;;;;;;8.63;7.68;;;;;;;0.03;93.55;100643.03;5027832;28;20112;-73
2022/04/01 06:38:34;;;;;;;12.00;7.95;;;;;;;0.04;93.39;100644.72;5022751;28;20454;-72
2022/04/01 06:41:05;;;;;;;9.65;8.13;;;;;;;0.04;93.39;100647.31;5031230;28;20026;-72
2022/04/01 06:43:35;;;;;;;9.60;8.32;;;;;;;-0.01;93.24;100653.44;5026899;28;20496;-72
2022/04/01 06:46:04;;;;;;;8.52;7.60;;;;;;;0.01;93.19;100662.94;5029089;28;20025;-74
2022/04/01 06:48:30;;;;;;;8.98;7.38;;;;;;;0.01;93.30;100661.19;5027567;28;20709;-74
2022/04/01 06:50:57;;;;;;;9.45;7.47;;;;;;;0.03;93.29;100672.31;5025656;28;20023;-74
2022/04/01 06:53:23;;;;;;;8.77;7.43;;;;;;;0.03;93.50;100674.06;5027226;28;20079;-73
2022/04/01 06:55:48;;;;;;;8.98;7.20;;;;;;;0.02;92.90;100675.81;5027222;28;20033;-72
2022/04/01 06:58:14;;;;;;;8.57;7.65;;;;;;;0.01;93.02;100679.28;5021930;28;20028;-74
2022/04/01 07:00:43;;;;;;;10.77;7.07;;;;;;;0.04;92.85;100678.34;5008966;28;20030;-75
2022/04/01 07:03:09;;;;;;;8.38;6.63;;;;;;;0.01;92.47;100683.63;5024746;28;20096;-73
2022/04/01 07:05:35;;;;;;;7.85;6.47;;;;;;;0.02;92.27;100682.72;5014021;28;20030;-73
2022/04/01 07:08:02;;;;;;;9.40;6.45;;;;;;;0.01;92.19;100686.19;5030357;28;20029;-73
2022/04/01 07:10:27;;;;;;;6.93;6.07;;;;;;;0.01;92.26;100683.63;5029389;28;20021;-73
2022/04/01 07:12:53;;;;;;;9.60;6.97;;;;;;;0.03;92.39;100692.16;5021141;28;20028;-73
2022/04/01 07:15:18;;;;;;;10.43;7.22;;;;;;;0.03;92.09;100687.00;5062609;28;20041;-73
2022/04/01 07:17:44;;;;;;;9.25;6.20;;;;;;;0.03;91.87;100697.34;5014426;28;20025;-73
2022/04/01 07:20:13;;;;;;;10.45;6.95;;;;;;;0.03;91.53;100699.94;5012624;28;20081;-73
2022/04/01 07:22:40;;;;;;;9.13;6.40;;;;;;;0.02;91.39;100701.66;5027295;28;20032;-73
2022/04/01 07:25:07;;;;;;;7.75;6.35;;;;;;;0.03;92.03;100702.50;5017258;28;20034;-73
2022/04/01 07:27:34;;;;;;;8.68;6.30;;;;;;;0.03;91.67;100705.09;5018997;28;20083;-73
2022/04/01 07:30:03;;;;;;;8.55;6.93;;;;;;;0.02;91.52;100711.16;5026612;28;20492;-72
2022/04/01 07:32:34;;;;;;;11.38;6.88;;;;;;;0.01;91.33;100718.09;5019146;28;20077;-72
2022/04/01 07:35:04;;;;;;;7.60;6.38;;;;;;;0.04;91.88;100719.72;5017010;28;20050;-72
2022/04/01 07:37:31;;;;;;;7.85;6.57;;;;;;;0.03;91.78;100729.22;5019597;28;20490;-72
2022/04/01 07:39:57;;;;;;;8.45;6.57;;;;;;;0.04;91.63;100727.47;5028423;28;20025;-72
2022/04/01 07:42:24;;;;;;;10.18;6.80;;;;;;;0.04;91.97;100735.25;5022255;28;20081;-72
2022/04/01 07:44:50;;;;;;;7.20;6.13;;;;;;;0.05;92.35;100736.94;5009279;28;20386;-72
2022/04/01 07:47:18;;;;;;;7.13;5.57;;;;;;;0.04;90.95;100736.09;5013273;28;20104;-72
2022/04/01 07:49:44;;;;;;;8.48;5.97;;;;;;;0.05;91.18;100737.78;5024606;28;20460;-74
2022/04/01 07:52:11;;;;;;;8.82;5.80;;;;;;;0.06;91.04;100751.56;5048049;28;20033;-74
2022/04/01 07:54:40;;;;;;;8.07;5.60;;;;;;;0.08;90.95;100747.16;5021035;28;20470;-74
2022/04/01 07:57:06;;;;;;;7.82;6.03;;;;;;;0.09;91.40;100748.88;5014802;28;20054;-72
2022/04/01 07:59:32;;;;;;;7.38;6.28;;;;;;;0.08;90.80;100742.84;5028050;28;20024;-72
2022/04/01 08:01:58;;;;;;;8.02;5.68;;;;;;;0.09;91.24;100754.88;5017272;28;20539;-74
2022/04/01 08:04:25;;;;;;;7.97;6.07;;;;;;;0.10;91.01;100755.72;5021333;28;20026;-74
2022/04/01 08:06:51;;;;;;;8.45;5.78;;;;;;;0.11;91.23;100758.25;5020991;28;20033;-74
2022/04/01 08:09:16;;;;;;;10.30;6.10;;;;;;;0.13;90.96;100763.38;5031500;28;20065;-74
2022/04/01 08:11:43;;;;;;;7.35;6.03;;;;;;;0.14;91.20;100767.66;5014238;28;20077;-75
2022/04/01 08:14:08;;;;;;;6.22;5.47;;;;;;;0.15;90.90;100764.19;5023888;28;20101;-74
2022/04/01 08:16:33;;;;;;;7.60;5.68;;;;;;;0.16;91.30;100773.63;5016541;28;20120;-74
2022/04/01 08:18:59;;;;;;;9.68;5.90;;;;;;;0.15;91.54;100769.34;5017920;28;20440;-74
2022/04/01 08:21:24;;;;;;;8.95;5.93;;;;;;;0.14;90.93;100783.19;5025162;28;20037;-74
2022/04/01 08:23:50;;;;;;;9.90;5.68;;;;;;;0.12;90.89;100790.16;5011866;28;20108;-74
2022/04/01 08:26:15;;;;;;;7.32;5.80;;;;;;;0.14;91.05;100790.94;5023614;28;20056;-74
2022/04/01 08:28:41;;;;;;;9.07;5.57;;;;;;;0.16;91.31;100796.91;5011825;28;20064;-74
2022/04/01 08:31:08;;;;;;;7.47;5.57;;;;;;;0.16;90.95;100795.16;5024116;28;20021;-74
2022/04/01 08:33:34;;;;;;;7.97;5.35;;;;;;;0.18;91.03;100797.72;5027729;28;20062;-75
2022/04/01 08:36:00;;;;;;;8.73;5.47;;;;;;;0.18;90.56;100795.97;5049610;28;20040;-74
2022/04/01 08:38:26;;;;;;;7.60;5.55;;;;;;;0.18;90.63;100814.06;5023805;28;20033;-71
2022/04/01 08:40:52;;;;;;;6.60;5.40;;;;;;;0.18;90.65;100816.66;5021958;28;20481;-74
2022/04/01 08:43:29;;;;;;;7.80;5.32;;;;;;;0.22;90.78;100827.75;5012278;28;20048;-74
2022/04/01 08:45:56;;;;;;;7.22;5.30;;;;;;;0.20;90.73;100824.38;5027723;28;20025;-74
2022/04/01 08:48:23;;;;;;;7.95;5.05;;;;;;;0.21;89.98;100832.09;5023361;28;20466;-74
2022/04/01 08:50:50;;;;;;;5.30;4.50;;;;;;;0.21;89.62;100836.41;5024885;28;20569;-74
2022/04/01 08:53:15;;;;;;;9.18;4.72;;;;;;;0.23;89.98;100834.63;5010499;28;20034;-74
2022/04/01 08:55:46;;;;;;;6.32;4.88;;;;;;;0.24;89.19;100851.84;5030707;28;20032;-74
2022/04/01 08:58:12;;;;;;;7.85;4.80;;;;;;;0.25;89.06;100845.78;5030081;28;20022;-74
2022/04/01 09:00:37;;;;;;;7.15;4.95;;;;;;;0.27;89.54;100846.56;5027640;28;20026;-74
2022/04/01 09:03:06;;;;;;;5.18;4.30;;;;;;;0.28;89.02;100848.25;5041769;28;20032;-74
2022/04/01 09:05:31;;;;;;;5.40;4.03;;;;;;;0.28;89.18;100853.44;5029385;28;20057;-74
2022/04/01 09:08:08;;;;;;;5.40;4.30;;;;;;;0.31;89.41;100856.75;5029210;28;20068;-74
2022/04/01 09:11:16;;;;;;;7.80;5.15;;;;;;;0.35;89.22;100860.09;5028918;28;20493;-74
2022/04/01 09:13:47;;;;;;;6.13;4.50;;;;;;;0.34;88.56;100858.41;4994911;28;20127;-74
2022/04/01 09:16:27;;;;;;;7.05;4.70;;;;;;;0.35;88.91;100862.69;5016869;28;20052;-74
2022/04/01 09:18:54;;;;;;;6.75;4.60;;;;;;;0.36;89.03;100869.56;5021953;28;20029;-74
2022/04/01 09:21:28;;;;;;;7.72;4.47;;;;;;;0.40;89.54;100866.00;5029210;28;20032;-74
2022/04/01 09:23:54;;;;;;;7.13;5.00;;;;;;;0.41;90.17;100872.03;5029299;28;20017;-74
2022/04/01 09:26:22;;;;;;;5.68;4.20;;;;;;;0.43;89.64;100878.84;5036790;28;20219;-74
2022/04/01 09:28:51;;;;;;;6.80;4.60;;;;;;;0.44;89.59;100875.34;5027443;28;20409;-74
2022/04/01 09:31:16;;;;;;;7.05;4.82;;;;;;;0.47;89.42;100875.25;5029329;28;20028;-75
2022/04/01 09:33:47;;;;;;;5.40;4.30;;;;;;;0.51;89.43;100881.19;5029554;28;20396;-78
2022/04/01 09:36:18;;;;;;;6.40;4.28;;;;;;;0.51;89.13;100876.84;5028358;28;20111;-79
2022/04/01 09:38:56;;;;;;;6.43;3.97;;;;;;;0.57;89.28;100886.16;5028547;28;20032;-78
2022/04/01 09:41:28;;;;;;;7.03;3.97;;;;;;;0.57;89.53;100881.81;5024866;28;20209;-77
2022/04/01 09:44:04;;;;;;;5.72;4.07;;;;;;;0.60;89.31;100884.31;5003889;28;20052;-78
2022/04/01 09:46:29;;;;;;;5.65;3.72;;;;;;;0.62;89.12;100889.44;5029595;28;20607;-77
2022/04/01 09:49:01;;;;;;;8.07;4.00;;;;;;;0.62;89.32;100885.09;5029544;28;20532;-77
2022/04/01 09:51:33;;;;;;;7.38;3.88;;;;;;;0.69;88.88;100887.50;5029164;28;20053;-77
2022/04/01 09:54:03;;;;;;;4.93;3.50;;;;;;;0.70;88.57;100887.44;5030229;28;20079;-78
2022/04/01 09:56:56;;;;;;;5.45;3.42;;;;;;;0.75;88.79;100890.72;5039503;28;20366;-77
2022/04/01 09:59:23;;;;;;;4.20;3.20;;;;;;;0.74;87.87;100890.78;5019634;28;20280;-77
2022/04/01 10:01:49;;;;;;;5.55;3.22;;;;;;;0.76;88.32;100896.75;5021797;28;20025;-77
2022/04/01 10:04:14;;;;;;;4.90;3.15;;;;;;;0.75;87.57;100892.47;5032586;28;20528;-77
2022/04/01 10:06:40;;;;;;;4.22;3.00;;;;;;;0.77;88.90;100886.34;5028967;28;20049;-77
2022/04/01 10:09:08;;;;;;;6.15;3.20;;;;;;;0.80;88.38;100894.03;5028149;28;20061;-77
2022/04/01 10:11:36;;;;;;;5.35;3.10;;;;;;;0.80;88.21;100896.63;5060252;28;20022;-77
2022/04/01 10:14:08;;;;;;;5.05;3.45;;;;;;;0.82;88.35;100894.84;5028301;28;20118;-77
2022/04/01 10:16:35;;;;;;;6.57;3.58;;;;;;;0.85;88.77;100906.84;5027469;28;20033;-78
2022/04/01 10:19:14;;;;;;;8.15;3.42;;;;;;;0.87;88.34;100900.69;5026388;28;20036;-76
2022/04/01 10:21:45;;;;;;;4.32;3.25;;;;;;;0.88;87.85;100901.53;5027160;28;20398;-76
2022/04/01 10:24:15;;;;;;;3.95;3.08;;;;;;;0.88;87.87;100901.53;5030593;28;20026;-77
2022/04/01 10:26:49;;;;;;;6.13;3.20;;;;;;;0.88;87.10;100904.97;5033608;28;20033;-76
2022/04/01 10:29:15;;;;;;;4.72;3.00;;;;;;;0.88;87.60;100901.53;5028220;28;20029;-76
2022/04/01 10:31:52;;;;;;;3.40;3.00;;;;;;;0.92;88.01;100909.16;5027297;28;20017;-76
2022/04/01 10:34:20;;;;;;;5.32;3.20;;;;;;;0.90;87.61;100905.78;5010839;28;20081;-76
2022/04/01 10:37:00;;;;;;;6.85;3.40;;;;;;;0.97;88.11;100908.16;5021282;28;20097;-76
2022/04/01 10:39:26;;;;;;;3.63;3.13;;;;;;;0.96;87.41;100904.72;5030231;28;20068;-76
2022/04/01 10:42:12;;;;;;;7.15;3.50;;;;;;;1.00;87.06;100901.13;5030591;28;20057;-76
2022/04/01 10:44:58;;;;;;;4.70;3.40;;;;;;;1.01;87.77;100917.53;5047147;28;20053;-76
2022/04/01 10:53:36;;;;;;;7.70;3.63;;;;;;;1.05;87.16;100917.34;5031583;28;20048;-75
2022/04/01 10:56:20;;;;;;;6.93;3.88;;;;;;;1.09;88.37;100924.13;5035823;28;20032;-75
2022/04/01 10:59:04;;;;;;;5.70;4.18;;;;;;;1.10;87.92;100925.81;5036580;28;20516;-76
2022/04/01 11:01:50;;;;;;;5.35;3.78;;;;;;;1.10;86.54;100920.63;5053268;28;20021;-75
2022/04/01 11:04:16;;;;;;;5.25;4.20;;;;;;;1.11;87.57;100924.06;5024369;28;20049;-75
2022/04/01 11:07:01;;;;;;;7.80;4.40;;;;;;;1.18;87.15;100943.69;5031819;28;20029;-75
2022/04/01 11:09:43;;;;;;;4.80;4.05;;;;;;;1.16;87.63;100935.97;5032545;28;20044;-75
2022/04/01 11:12:14;;;;;;;6.85;4.70;;;;;;;1.17;87.42;100935.06;5029508;28;20378;-76
2022/04/01 11:17:34;;;;;;;7.28;5.00;;;;;;;1.19;85.82;100935.03;5022439;28;20437;-75
2022/04/01 11:20:08;;;;;;;7.32;5.05;;;;;;;1.21;84.54;100938.44;5011581;28;20033;-77
2022/04/01 11:23:01;;;;;;;7.70;5.20;;;;;;;1.21;84.37;100947.06;5014933;28;20034;-77
2022/04/01 11:25:32;;;;;;;7.50;5.32;;;;;;;1.21;84.04;100941.88;5041690;28;20030;-76
2022/04/01 11:28:08;;;;;;;6.90;4.78;;;;;;;1.24;84.63;100941.78;5024975;28;20124;-77
2022/04/01 11:30:40;;;;;;;7.30;4.90;;;;;;;1.27;85.69;100939.97;5027975;28;20547;-77
2022/04/01 11:33:15;;;;;;;7.68;5.18;;;;;;;1.28;83.96;100946.84;5052100;28;20025;-77
2022/04/01 11:35:44;;;;;;;6.78;4.85;;;;;;;1.28;85.08;100952.03;5022213;28;20034;-77
2022/04/01 11:38:15;;;;;;;5.88;4.95;;;;;;;1.29;84.60;100948.53;5035339;28;20121;-77
2022/04/01 11:40:42;;;;;;;7.25;5.03;;;;;;;1.27;84.31;100950.34;5020889;28;20045;-77
2022/04/01 11:43:15;;;;;;;7.75;5.32;;;;;;;1.30;84.79;100950.22;5019690;28;20033;-77
2022/04/01 11:45:46;;;;;;;8.30;5.22;;;;;;;1.32;85.08;100951.03;5024976;28;20230;-77
2022/04/01 11:48:26;;;;;;;6.18;5.05;;;;;;;1.33;84.57;100950.13;5022356;28;20029;-78
2022/04/01 11:50:54;;;;;;;8.15;5.60;;;;;;;1.33;84.96;100950.13;5018963;28;20022;-77
2022/04/01 11:53:45;;;;;;;8.73;5.80;;;;;;;1.35;85.04;100953.50;5018710;28;20064;-77
2022/04/01 11:56:11;;;;;;;10.27;5.72;;;;;;;1.37;85.17;100956.91;5011237;28;20067;-78
2022/04/01 11:58:52;;;;;;;6.93;5.30;;;;;;;1.39;84.70;100955.09;5010227;28;20021;-77